createdAt,value
2023-04-11T00:02:27.536Z,7.87
2023-04-11T00:05:16.873Z,7.79
2023-04-11T00:08:10.571Z,7.79
2023-04-11T00:10:59.816Z,7.78
2023-04-11T00:13:48.958Z,7.78
2023-04-11T00:16:38.329Z,7.74
2023-04-11T00:19:28.327Z,7.77
2023-04-11T00:22:18.042Z,7.62
2023-04-11T00:25:09.894Z,7.81
2023-04-11T00:27:59.211Z,7.80
2023-04-11T00:30:48.611Z,7.75
2023-04-11T00:33:39.851Z,7.71
2023-04-11T00:36:30.189Z,7.82
2023-04-11T00:39:20.448Z,7.77
2023-04-11T00:42:11.132Z,7.76
2023-04-11T00:45:00.520Z,7.82
2023-04-11T00:47:50.793Z,7.76
2023-04-11T00:50:43.306Z,7.70
2023-04-11T00:53:33.623Z,7.75
2023-04-11T00:56:23.224Z,7.81
2023-04-11T00:59:14.363Z,7.83
2023-04-11T01:02:03.710Z,7.81
2023-04-11T01:04:53.416Z,7.81
2023-04-11T01:07:46.543Z,7.79
2023-04-11T01:10:36.551Z,7.82
2023-04-11T01:13:26.218Z,7.75
2023-04-11T01:16:21.472Z,7.79
2023-04-11T01:19:11.532Z,7.78
2023-04-11T01:22:02.830Z,7.74
2023-04-11T01:24:54.334Z,7.73
2023-04-11T01:27:43.597Z,7.65
2023-04-11T01:30:32.781Z,7.55
2023-04-11T01:33:22.313Z,7.57
2023-04-11T01:36:12.117Z,7.52
2023-04-11T01:39:01.579Z,7.61
2023-04-11T01:41:52.913Z,7.49
2023-04-11T01:44:42.747Z,7.54
2023-04-11T01:47:32.098Z,7.43
2023-04-11T01:50:21.377Z,7.40
2023-04-11T01:53:10.645Z,7.41
2023-04-11T01:56:00.007Z,7.38
2023-04-11T01:58:50.838Z,7.37
2023-04-11T02:01:40.720Z,7.39
2023-04-11T02:04:30.054Z,7.39
2023-04-11T02:07:20.866Z,7.41
2023-04-11T02:10:11.048Z,7.27
2023-04-11T02:13:00.363Z,7.39
2023-04-11T02:15:51.062Z,7.39
2023-04-11T02:18:41.238Z,7.40
2023-04-11T02:21:30.467Z,7.40
2023-04-11T02:24:20.215Z,7.47
2023-04-11T02:27:10.517Z,7.46
2023-04-11T02:30:00.251Z,7.47
2023-04-11T02:32:50.833Z,7.49
2023-04-11T02:35:40.206Z,7.52
2023-04-11T02:38:29.380Z,7.52
2023-04-11T02:41:21.401Z,7.60
2023-04-11T02:44:13.168Z,7.67
2023-04-11T02:47:04.207Z,7.53
2023-04-11T02:49:55.170Z,7.50
2023-04-11T02:52:50.450Z,7.63
2023-04-11T02:55:44.125Z,7.60
2023-04-11T02:58:33.416Z,7.70
2023-04-11T03:01:26.651Z,7.69
2023-04-11T03:04:17.604Z,7.57
2023-04-11T03:07:20.056Z,7.64
2023-04-11T03:10:10.526Z,7.59
2023-04-11T03:12:59.861Z,7.64
2023-04-11T03:15:49.234Z,7.58
2023-04-11T03:18:39.610Z,7.54
2023-04-11T03:21:32.511Z,7.60
2023-04-11T03:24:23.481Z,7.64
2023-04-11T03:27:13.592Z,7.65
2023-04-11T03:30:07.348Z,7.56
2023-04-11T03:33:08.408Z,7.45
2023-04-11T03:35:58.310Z,7.62
2023-04-11T03:38:47.540Z,7.59
2023-04-11T03:41:38.157Z,7.54
2023-04-11T03:44:31.411Z,7.57
2023-04-11T03:47:21.210Z,7.52
2023-04-11T03:50:12.336Z,7.55
2023-04-11T03:53:07.306Z,7.47
2023-04-11T03:55:57.141Z,7.48
2023-04-11T03:58:54.827Z,7.45
2023-04-11T04:01:47.898Z,7.46
2023-04-11T04:04:38.562Z,7.39
2023-04-11T04:07:42.303Z,7.46
2023-04-11T04:10:39.118Z,7.50
2023-04-11T04:13:29.170Z,7.46
2023-04-11T04:16:33.969Z,7.46
2023-04-11T04:19:27.039Z,7.54
2023-04-11T04:22:18.006Z,7.55
2023-04-11T04:25:15.932Z,7.49
2023-04-11T04:28:06.948Z,7.49
2023-04-11T04:31:02.480Z,7.50
2023-04-11T04:34:02.750Z,7.52
2023-04-11T04:36:56.522Z,7.39
2023-04-11T04:40:02.294Z,7.42
2023-04-11T04:42:58.656Z,7.38
2023-04-11T04:46:00.053Z,7.42
2023-04-11T04:48:56.062Z,7.51
2023-04-11T04:51:47.939Z,7.53
2023-04-11T04:54:37.551Z,7.50
2023-04-11T04:57:27.233Z,7.48
2023-04-11T05:03:08.985Z,7.66
2023-04-11T05:05:59.683Z,7.63
2023-04-11T05:08:50.902Z,7.55
2023-04-11T05:11:40.156Z,7.56
2023-04-11T05:14:31.382Z,7.57
2023-04-11T05:17:22.202Z,7.52
2023-04-11T05:20:15.607Z,7.48
2023-04-11T05:23:07.849Z,7.36
2023-04-11T05:25:58.652Z,7.48
2023-04-11T05:28:47.981Z,7.46
2023-04-11T05:31:40.820Z,7.43
2023-04-11T05:34:32.924Z,7.42
2023-04-11T05:37:22.732Z,7.45
2023-04-11T05:40:12.933Z,7.43
2023-04-11T05:43:03.716Z,7.41
2023-04-11T05:45:54.492Z,7.42
2023-04-11T05:48:44.130Z,7.51
2023-04-11T05:51:33.442Z,7.50
2023-04-11T05:54:34.427Z,7.58
2023-04-11T05:57:23.602Z,7.60
2023-04-11T06:00:17.044Z,7.60
2023-04-11T06:03:08.063Z,7.62
2023-04-11T06:05:57.811Z,7.64
2023-04-11T06:08:47.098Z,7.72
2023-04-11T06:11:40.882Z,7.74
2023-04-11T06:14:30.362Z,7.73
2023-04-11T06:17:21.307Z,7.79
2023-04-11T06:20:11.496Z,7.80
2023-04-11T06:23:01.679Z,7.84
2023-04-11T06:25:50.901Z,7.88
2023-04-11T06:28:40.165Z,7.90
2023-04-11T06:31:29.512Z,7.88
2023-04-11T06:34:21.987Z,7.90
2023-04-11T06:37:13.602Z,7.96
2023-04-11T06:40:09.264Z,8.01
2023-04-11T06:43:00.375Z,8.02
2023-04-11T06:45:50.130Z,8.07
2023-04-11T06:48:41.020Z,8.14
2023-04-11T06:51:34.040Z,8.16
2023-04-11T06:54:25.243Z,8.39
2023-04-11T06:57:14.477Z,8.51
2023-04-11T07:00:07.058Z,8.61
2023-04-11T07:02:56.460Z,8.81
2023-04-11T07:05:46.208Z,8.88
2023-04-11T07:08:36.941Z,8.87
2023-04-11T07:11:29.457Z,8.94
2023-04-11T07:14:18.715Z,9.02
2023-04-11T07:17:07.894Z,9.17
2023-04-11T07:19:57.469Z,9.25
2023-04-11T07:22:46.684Z,9.39
2023-04-11T07:25:39.340Z,9.46
2023-04-11T07:28:31.233Z,9.50
2023-04-11T07:31:22.234Z,9.64
2023-04-11T07:34:11.781Z,9.74
2023-04-11T07:37:01.347Z,10.03
2023-04-11T07:39:52.030Z,10.22
2023-04-11T07:42:43.286Z,10.35
2023-04-11T07:45:33.515Z,10.47
2023-04-11T07:48:23.151Z,10.64
2023-04-11T07:51:12.396Z,10.85
2023-04-11T07:54:01.615Z,11.04
2023-04-11T07:56:50.847Z,11.15
2023-04-11T07:59:42.543Z,11.26
2023-04-11T08:02:33.380Z,11.46
2023-04-11T08:05:23.105Z,11.60
2023-04-11T08:08:12.414Z,11.75
2023-04-11T08:11:01.628Z,11.70
2023-04-11T08:13:50.871Z,11.78
2023-04-11T08:16:41.691Z,11.76
2023-04-11T08:19:31.714Z,11.72
2023-04-11T08:22:20.924Z,11.58
2023-04-11T08:25:12.853Z,11.73
2023-04-11T08:28:02.559Z,11.72
2023-04-11T08:30:55.357Z,11.89
2023-04-11T08:33:46.129Z,12.10
2023-04-11T08:36:35.262Z,12.49
2023-04-11T08:39:24.527Z,12.77
2023-04-11T08:42:24.644Z,12.97
2023-04-11T08:45:14.644Z,13.03
2023-04-11T08:48:03.809Z,12.92
2023-04-11T08:50:54.463Z,12.75
2023-04-11T08:53:44.181Z,12.73
2023-04-11T08:56:35.175Z,12.65
2023-04-11T08:59:24.361Z,12.68
2023-04-11T09:02:13.689Z,12.59
2023-04-11T09:05:02.935Z,12.60
2023-04-11T09:07:53.607Z,12.58
2023-04-11T09:10:45.192Z,12.53
2023-04-11T09:13:34.828Z,12.51
2023-04-11T09:16:24.143Z,12.49
2023-04-11T09:19:25.602Z,12.55
2023-04-11T09:22:15.724Z,12.20
2023-04-11T09:25:07.314Z,12.46
2023-04-11T09:28:10.086Z,12.32
2023-04-11T09:30:59.687Z,12.21
2023-04-11T09:33:55.753Z,12.13
2023-04-11T09:36:56.392Z,12.07
2023-04-11T09:39:45.636Z,12.11
2023-04-11T09:42:36.694Z,12.16
2023-04-11T09:45:27.413Z,12.11
2023-04-11T09:48:17.883Z,12.10
2023-04-11T09:51:08.271Z,12.13
2023-04-11T09:53:58.611Z,12.15
2023-04-11T09:56:48.191Z,12.17
2023-04-11T09:59:41.402Z,12.00
2023-04-11T10:02:31.125Z,12.04
2023-04-11T10:05:22.201Z,11.95
2023-04-11T10:08:23.901Z,12.09
2023-04-11T10:11:18.584Z,12.09
2023-04-11T10:14:07.907Z,12.06
2023-04-11T10:17:20.522Z,12.18
2023-04-11T10:20:46.216Z,12.15
2023-04-11T10:24:08.647Z,12.24
2023-04-11T10:27:01.101Z,12.15
2023-04-11T10:29:53.821Z,12.13
2023-04-11T10:33:15.909Z,12.11
2023-04-11T10:36:10.359Z,12.09
2023-04-11T10:38:59.934Z,12.13
2023-04-11T10:41:49.180Z,12.06
2023-04-11T10:44:38.553Z,12.16
2023-04-11T10:47:29.043Z,12.11
2023-04-11T10:50:44.700Z,12.13
2023-04-11T10:53:38.590Z,12.22
2023-04-11T10:56:57.101Z,12.22
2023-04-11T11:00:09.509Z,12.33
2023-04-11T11:02:59.344Z,12.39
2023-04-11T11:05:59.843Z,12.20
2023-04-11T11:08:49.088Z,12.14
2023-04-11T11:11:38.285Z,12.26
2023-04-11T11:14:31.185Z,12.32
2023-04-11T11:17:20.802Z,12.35
2023-04-11T11:20:20.142Z,12.38
2023-04-11T11:23:12.253Z,12.32
2023-04-11T11:26:01.578Z,12.45
2023-04-11T11:28:50.917Z,12.51
2023-04-11T11:31:42.209Z,12.47
2023-04-11T11:34:33.471Z,12.51
2023-04-11T11:37:23.297Z,12.52
2023-04-11T11:40:14.615Z,12.52
2023-04-11T11:43:04.021Z,12.61
2023-04-11T11:46:10.056Z,12.67
2023-04-11T11:49:01.550Z,12.74
2023-04-11T11:51:51.016Z,12.68
2023-04-11T11:54:46.198Z,12.78
2023-04-11T11:57:37.515Z,12.86
2023-04-11T12:00:28.970Z,13.01
2023-04-11T12:03:22.891Z,13.03
2023-04-11T12:06:13.462Z,13.11
2023-04-11T12:09:09.435Z,13.22
2023-04-11T12:11:58.648Z,13.18
2023-04-11T12:14:55.630Z,13.27
2023-04-11T12:17:48.982Z,13.23
2023-04-11T12:20:38.229Z,13.18
2023-04-11T12:23:27.400Z,13.27
2023-04-11T12:26:17.803Z,12.82
2023-04-11T12:29:07.354Z,13.37
2023-04-11T12:31:58.051Z,13.46
2023-04-11T12:34:47.289Z,13.53
2023-04-11T12:37:36.732Z,13.53
2023-04-11T12:40:26.122Z,13.54
2023-04-11T12:43:15.601Z,13.57
2023-04-11T12:46:05.713Z,13.56
2023-04-11T12:48:56.479Z,13.50
2023-04-11T12:51:45.948Z,13.45
2023-04-11T12:54:35.471Z,13.37
2023-04-11T12:57:25.166Z,13.32
2023-04-11T13:00:16.746Z,13.24
2023-04-11T13:03:06.207Z,13.09
2023-04-11T13:05:57.123Z,13.05
2023-04-11T13:08:47.131Z,12.94
2023-04-11T13:11:36.443Z,12.94
2023-04-11T13:14:26.062Z,12.82
2023-04-11T13:17:15.490Z,12.85
2023-04-11T13:20:09.116Z,12.86
2023-04-11T13:22:59.958Z,12.84
2023-04-11T13:25:49.163Z,12.81
2023-04-11T13:28:39.030Z,12.80
2023-04-11T13:31:28.807Z,12.87
2023-04-11T13:34:18.198Z,12.86
2023-04-11T13:37:07.501Z,12.97
2023-04-11T13:39:58.311Z,13.06
2023-04-11T13:42:47.760Z,13.28
2023-04-11T13:45:37.102Z,13.60
2023-04-11T13:48:26.444Z,13.80
2023-04-11T13:51:15.979Z,13.90
2023-04-11T13:54:05.776Z,14.09
2023-04-11T13:56:56.544Z,14.18
2023-04-11T13:59:45.715Z,14.18
2023-04-11T14:02:35.085Z,13.95
2023-04-11T14:05:25.303Z,13.85
2023-04-11T14:08:15.015Z,13.79
2023-04-11T14:11:04.603Z,13.65
2023-04-11T14:13:55.584Z,13.55
2023-04-11T14:16:44.993Z,13.55
2023-04-11T14:19:34.325Z,13.48
2023-04-11T14:22:23.770Z,13.41
2023-04-11T14:25:15.823Z,13.37
2023-04-11T14:28:05.187Z,13.30
2023-04-11T14:30:57.023Z,13.18
2023-04-11T14:33:46.388Z,13.19
2023-04-11T14:36:35.648Z,13.05
2023-04-11T14:39:25.023Z,13.08
2023-04-11T14:42:14.260Z,12.99
2023-04-11T14:45:03.486Z,12.92
2023-04-11T14:47:54.401Z,12.94
2023-04-11T14:50:43.620Z,12.85
2023-04-11T14:53:32.820Z,13.00
2023-04-11T14:56:22.623Z,12.97
2023-04-11T14:59:11.928Z,12.97
2023-04-11T15:02:01.189Z,12.95
2023-04-11T15:04:53.485Z,12.98
2023-04-11T15:07:42.896Z,12.91
2023-04-11T15:10:32.388Z,12.78
2023-04-11T15:13:22.394Z,12.76
2023-04-11T15:16:12.260Z,12.75
2023-04-11T15:19:01.591Z,12.69
2023-04-11T15:21:52.176Z,12.69
2023-04-11T15:24:42.257Z,12.72
2023-04-11T15:27:31.484Z,12.68
2023-04-11T15:30:20.992Z,12.61
2023-04-11T15:33:10.295Z,12.54
2023-04-11T15:36:00.737Z,12.38
2023-04-11T15:38:51.553Z,12.33
2023-04-11T15:41:41.474Z,12.26
2023-04-11T15:44:30.875Z,12.10
2023-04-11T15:47:20.107Z,11.95
2023-04-11T15:50:10.157Z,11.77
2023-04-11T15:52:59.703Z,11.68
2023-04-11T15:55:51.450Z,11.62
2023-04-11T15:58:40.813Z,11.63
2023-04-11T16:01:30.160Z,11.64
2023-04-11T16:04:20.005Z,11.62
2023-04-11T16:07:09.516Z,11.65
2023-04-11T16:09:58.681Z,11.76
2023-04-11T16:12:49.348Z,11.73
2023-04-11T16:15:38.625Z,11.90
2023-04-11T16:18:27.866Z,11.98
2023-04-11T16:21:17.946Z,12.03
2023-04-11T16:24:07.450Z,12.01
2023-04-11T16:26:57.364Z,11.97
2023-04-11T16:29:48.026Z,12.04
2023-04-11T16:32:37.281Z,11.98
2023-04-11T16:35:26.561Z,12.05
2023-04-11T16:38:16.369Z,12.08
2023-04-11T16:41:06.091Z,12.10
2023-04-11T16:43:55.534Z,12.08
2023-04-11T16:46:46.362Z,12.04
2023-04-11T16:49:35.776Z,12.01
2023-04-11T16:52:25.078Z,11.94
2023-04-11T16:55:15.142Z,11.76
2023-04-11T16:58:06.317Z,11.62
2023-04-11T17:00:55.816Z,11.57
2023-04-11T17:03:47.198Z,11.41
2023-04-11T17:06:37.129Z,10.76
2023-04-11T17:09:26.332Z,10.52
2023-04-11T17:12:15.511Z,10.27
2023-04-11T17:15:07.108Z,9.98
2023-04-11T17:17:56.344Z,9.76
2023-04-11T17:20:47.574Z,9.35
2023-04-11T17:23:57.236Z,9.20
2023-04-11T17:26:46.581Z,8.86
2023-04-11T17:29:35.752Z,8.55
2023-04-11T17:32:25.086Z,8.51
2023-04-11T17:35:14.282Z,8.30
2023-04-11T17:38:04.887Z,8.22
2023-04-11T17:41:00.082Z,8.08
2023-04-11T17:43:52.432Z,7.94
2023-04-11T17:46:41.722Z,7.95
2023-04-11T17:49:30.923Z,8.01
2023-04-11T17:52:20.084Z,7.93
2023-04-11T17:55:13.063Z,7.85
2023-04-11T17:58:03.372Z,7.93
2023-04-11T18:00:56.613Z,7.90
2023-04-11T18:03:47.158Z,7.84
2023-04-11T18:06:36.456Z,7.89
2023-04-11T18:09:27.599Z,7.90
2023-04-11T18:12:18.215Z,7.84
2023-04-11T18:15:11.820Z,7.87
2023-04-11T18:18:01.132Z,7.91
2023-04-11T18:20:50.452Z,7.94
2023-04-11T18:23:40.267Z,7.88
2023-04-11T18:26:31.350Z,7.92
2023-04-11T18:29:21.923Z,7.83
2023-04-11T18:32:21.211Z,7.82
2023-04-11T18:35:13.034Z,7.85
2023-04-11T18:38:02.703Z,7.88
2023-04-11T18:40:54.928Z,7.78
2023-04-11T18:43:44.954Z,7.83
2023-04-11T18:46:35.741Z,7.97
2023-04-11T18:49:25.078Z,7.90
2023-04-11T18:52:14.282Z,7.82
2023-04-11T18:55:03.673Z,7.88
2023-04-11T18:57:55.901Z,7.91
2023-04-11T19:00:46.688Z,7.88
2023-04-11T19:03:37.578Z,7.84
2023-04-11T19:06:27.012Z,7.90
2023-04-11T19:09:17.078Z,7.84
2023-04-11T19:12:07.039Z,7.74
2023-04-11T19:14:56.258Z,7.80
2023-04-11T19:17:45.573Z,7.73
2023-04-11T19:20:38.843Z,7.66
2023-04-11T19:23:28.360Z,7.63
2023-04-11T19:26:18.373Z,7.62
2023-04-11T19:29:08.951Z,7.63
2023-04-11T19:31:58.327Z,7.50
2023-04-11T19:34:49.576Z,7.48
2023-04-11T19:37:41.064Z,7.40
2023-04-11T19:40:30.437Z,7.34
2023-04-11T19:43:19.814Z,7.20
2023-04-11T19:46:09.425Z,7.19
2023-04-11T19:48:58.685Z,7.24
2023-04-11T19:51:47.931Z,7.28
2023-04-11T19:54:39.298Z,7.21
2023-04-11T19:57:29.121Z,7.14
2023-04-11T20:00:19.515Z,7.19
2023-04-11T20:03:14.589Z,7.12
2023-04-11T20:06:05.744Z,7.12
2023-04-11T20:08:55.382Z,7.14
2023-04-11T20:11:47.749Z,6.97
2023-04-11T20:14:38.074Z,7.06
2023-04-11T20:17:27.399Z,7.07
2023-04-11T20:20:17.070Z,7.07
2023-04-11T20:23:07.237Z,6.88
2023-04-11T20:25:57.518Z,6.93
2023-04-11T20:28:49.819Z,6.86
2023-04-11T20:31:38.943Z,6.81
2023-04-11T20:34:28.138Z,6.86
2023-04-11T20:37:18.882Z,7.01
2023-04-11T20:40:10.353Z,6.93
2023-04-11T20:43:00.343Z,6.92
2023-04-11T20:45:51.446Z,6.88
2023-04-11T20:48:41.771Z,6.91
2023-04-11T20:51:31.383Z,6.96
2023-04-11T20:54:20.692Z,6.89
2023-04-11T20:57:10.045Z,6.88
2023-04-11T20:59:59.973Z,6.86
2023-04-11T21:02:52.348Z,6.82
2023-04-11T21:05:46.740Z,6.73
2023-04-11T21:08:37.593Z,6.79
2023-04-11T21:11:27.479Z,6.80
2023-04-11T21:14:17.033Z,6.61
2023-04-11T21:17:07.483Z,6.63
2023-04-11T21:19:58.127Z,6.57
2023-04-11T21:22:48.321Z,6.63
2023-04-11T21:25:38.970Z,6.57
2023-04-11T21:28:28.371Z,6.43
2023-04-11T21:31:17.683Z,6.45
2023-04-11T21:34:06.899Z,6.33
2023-04-11T21:36:58.868Z,6.24
2023-04-11T21:39:48.534Z,6.19
2023-04-11T21:42:37.791Z,6.00
2023-04-11T21:45:27.493Z,5.99
2023-04-11T21:48:17.318Z,5.92
2023-04-11T21:51:07.785Z,5.83
2023-04-11T21:53:58.822Z,5.83
2023-04-11T21:56:48.663Z,5.86
2023-04-11T21:59:38.708Z,5.76
2023-04-11T22:02:28.168Z,5.69
2023-04-11T22:05:18.549Z,5.72
2023-04-11T22:08:15.047Z,5.74
2023-04-11T22:11:10.105Z,5.69
2023-04-11T22:14:00.981Z,5.89
2023-04-11T22:16:50.289Z,5.95
2023-04-11T22:19:42.335Z,5.91
2023-04-11T22:22:32.401Z,5.89
2023-04-11T22:25:22.565Z,5.90
2023-04-11T22:28:18.339Z,5.80
2023-04-11T22:31:09.588Z,5.76
2023-04-11T22:33:59.278Z,5.71
2023-04-11T22:36:48.724Z,5.62
2023-04-11T22:39:37.996Z,5.86
2023-04-11T22:42:27.245Z,5.82
2023-04-11T22:45:18.208Z,5.78
2023-04-11T22:48:07.874Z,5.78
2023-04-11T22:50:59.142Z,5.69
2023-04-11T22:53:48.354Z,5.72
2023-04-11T22:56:37.629Z,5.79
2023-04-11T22:59:27.886Z,5.65
2023-04-11T23:02:18.473Z,5.70
2023-04-11T23:05:09.814Z,5.54
2023-04-11T23:07:58.967Z,5.69
2023-04-11T23:10:48.187Z,5.66
2023-04-11T23:13:37.646Z,5.71
2023-04-11T23:16:27.381Z,5.63
2023-04-11T23:19:18.953Z,5.56
2023-04-11T23:22:08.440Z,5.44
2023-04-11T23:24:57.851Z,5.54
2023-04-11T23:27:47.621Z,5.51
2023-04-11T23:30:37.528Z,5.38
2023-04-11T23:33:26.887Z,5.44
2023-04-11T23:36:17.596Z,5.34
2023-04-11T23:39:06.777Z,5.37
2023-04-11T23:41:57.211Z,5.38
2023-04-11T23:44:46.592Z,5.41
2023-04-11T23:47:36.125Z,5.44
2023-04-11T23:50:25.575Z,5.32
2023-04-11T23:53:16.845Z,5.25
2023-04-11T23:56:07.064Z,5.31
2023-04-11T23:58:56.349Z,5.34
